Time;durP1;ratioP1;P1;durP2;ratioP2;P2;SDS_P1;SDS_P2;PMS_P1;PMS_P2;Temp;Humidity;BMP_temperature;BMP_pressure;BME280_temperature;BME280_humidity;BME280_pressure;Samples;Min_cycle;Max_cycle;Signal;HPM_P1;HPM_P2
2023/07/05 00:00:44;;;;;;;12.52;4.10;;;13.20;99.90;;;;;;5096411;28;20082;-19
2023/07/05 00:03:10;;;;;;;12.38;5.63;;;13.20;99.90;;;;;;5114466;28;20469;-20
2023/07/05 00:05:39;;;;;;;10.07;4.32;;;13.20;99.90;;;;;;5096106;28;20134;-20
2023/07/05 00:08:08;;;;;;;10.05;4.57;;;13.20;99.90;;;;;;5097229;28;20047;-20
2023/07/05 00:10:33;;;;;;;10.25;4.70;;;13.20;99.90;;;;;;5114609;28;20055;-20
2023/07/05 00:12:59;;;;;;;13.20;5.40;;;13.20;99.90;;;;;;5096754;28;20354;-20
2023/07/05 00:15:29;;;;;;;12.43;6.63;;;13.30;99.90;;;;;;5114300;28;20043;-20
2023/07/05 00:17:55;;;;;;;12.88;5.75;;;13.20;99.90;;;;;;5114225;28;20054;-20
2023/07/05 00:20:21;;;;;;;13.65;6.03;;;13.30;99.90;;;;;;5114223;28;20080;-20
2023/07/05 00:22:46;;;;;;;11.10;5.97;;;13.30;99.90;;;;;;5114215;28;20040;-20
2023/07/05 00:25:12;;;;;;;13.60;6.80;;;13.30;99.90;;;;;;5114194;28;20051;-20
2023/07/05 00:27:38;;;;;;;11.85;6.45;;;13.30;99.90;;;;;;5114154;28;20062;-20
2023/07/05 00:30:04;;;;;;;13.63;6.07;;;13.40;99.90;;;;;;5114133;28;20046;-20
2023/07/05 00:32:30;;;;;;;15.27;6.93;;;13.40;99.90;;;;;;5112765;28;20083;-20
2023/07/05 00:34:55;;;;;;;13.02;6.60;;;13.30;99.90;;;;;;5113832;28;20082;-20
2023/07/05 00:37:21;;;;;;;15.10;6.57;;;13.40;99.90;;;;;;5113999;28;20096;-20
2023/07/05 00:39:47;;;;;;;13.50;6.40;;;13.40;99.90;;;;;;5114058;28;20050;-20
2023/07/05 00:42:12;;;;;;;18.13;6.53;;;13.40;99.90;;;;;;5079396;28;20136;-20
2023/07/05 00:44:38;;;;;;;16.95;6.70;;;13.40;99.90;;;;;;5112990;28;20473;-20
2023/07/05 00:47:38;;;;;;;16.45;6.07;;;13.40;99.90;;;;;;5114706;28;20044;-20
2023/07/05 00:50:23;;;;;;;13.30;6.63;;;13.40;99.90;;;;;;5118212;28;20079;-20
2023/07/05 00:52:52;;;;;;;15.32;6.45;;;13.40;99.90;;;;;;5118964;28;20054;-20
2023/07/05 00:55:18;;;;;;;16.08;7.18;;;13.40;99.90;;;;;;5100532;28;20131;-20
2023/07/05 00:57:47;;;;;;;17.13;7.90;;;13.40;99.90;;;;;;5117915;28;20130;-20
2023/07/05 01:00:16;;;;;;;16.42;7.50;;;13.30;99.90;;;;;;5118013;28;20046;-20
2023/07/05 01:02:46;;;;;;;15.10;8.18;;;13.30;99.90;;;;;;5118407;28;20405;-20
2023/07/05 01:05:14;;;;;;;13.93;8.00;;;13.30;99.90;;;;;;5117634;28;20057;-20
2023/07/05 01:07:40;;;;;;;16.30;9.38;;;13.30;99.90;;;;;;5117860;28;20156;-20
2023/07/05 01:10:15;;;;;;;18.40;8.70;;;13.30;99.90;;;;;;5099288;28;20051;-20
2023/07/05 01:12:51;;;;;;;15.07;8.13;;;13.40;99.90;;;;;;5099821;28;20435;-20
2023/07/05 01:15:37;;;;;;;17.92;8.77;;;13.30;99.90;;;;;;5118274;28;20054;-20
2023/07/05 01:18:27;;;;;;;15.70;7.95;;;13.40;99.90;;;;;;5117616;28;20050;-20
2023/07/05 01:21:18;;;;;;;14.43;8.07;;;13.30;99.90;;;;;;5117628;28;20104;-20
2023/07/05 01:24:27;;;;;;;16.27;8.10;;;13.30;99.90;;;;;;5117533;28;20053;-20
2023/07/05 01:27:23;;;;;;;20.20;9.13;;;13.40;99.90;;;;;;5117853;28;20051;-20
2023/07/05 01:30:35;;;;;;;18.08;9.32;;;13.50;99.90;;;;;;5117356;28;20514;-20
2023/07/05 01:33:17;;;;;;;16.27;8.90;;;13.50;99.90;;;;;;5014726;28;20061;-20
2023/07/05 01:35:50;;;;;;;16.95;9.00;;;13.50;99.90;;;;;;5107910;28;20358;-20
2023/07/05 01:38:16;;;;;;;15.82;9.02;;;13.40;99.90;;;;;;5117204;28;20079;-21
2023/07/05 01:40:52;;;;;;;14.80;8.95;;;13.30;99.90;;;;;;5099082;28;20055;-21
2023/07/05 01:43:18;;;;;;;19.02;9.43;;;13.30;99.90;;;;;;5118012;28;20039;-21
2023/07/05 01:46:03;;;;;;;19.63;10.15;;;13.30;99.90;;;;;;5099182;28;20043;-22
2023/07/05 01:49:14;;;;;;;20.15;10.55;;;13.30;99.90;;;;;;5117956;28;20051;-21
2023/07/05 01:51:49;;;;;;;21.38;10.95;;;13.30;99.90;;;;;;5096222;28;20126;-22
2023/07/05 01:54:44;;;;;;;21.20;11.30;;;13.30;99.90;;;;;;5117476;28;20104;-22
2023/07/05 01:57:21;;;;;;;18.58;12.13;;;13.40;99.90;;;;;;5116837;28;20046;-23
2023/07/05 01:59:46;;;;;;;23.85;12.90;;;13.20;99.90;;;;;;5098574;28;20047;-25
2023/07/05 02:02:18;;;;;;;26.10;13.52;;;13.40;99.90;;;;;;5116770;28;20557;-25
2023/07/05 02:04:45;;;;;;;30.38;14.68;;;13.30;99.90;;;;;;5099136;28;20137;-26
2023/07/05 02:07:11;;;;;;;21.45;13.52;;;13.30;99.90;;;;;;5116489;28;20055;-26
2023/07/05 02:09:38;;;;;;;22.60;14.40;;;13.30;99.90;;;;;;5117476;28;20043;-25
2023/07/05 02:12:09;;;;;;;26.15;14.88;;;13.40;99.90;;;;;;5116918;28;20097;-26
2023/07/05 02:14:35;;;;;;;23.63;14.35;;;13.50;99.90;;;;;;5116541;28;20493;-26
2023/07/05 02:17:01;;;;;;;29.42;14.52;;;13.60;99.90;;;;;;5081513;28;20050;-26
2023/07/05 02:19:26;;;;;;;21.40;14.50;;;13.60;99.90;;;;;;5116420;28;20043;-27
2023/07/05 02:21:52;;;;;;;29.33;17.00;;;13.40;99.90;;;;;;5116374;28;20072;-26
2023/07/05 02:24:18;;;;;;;26.10;16.13;;;13.70;99.90;;;;;;5116374;28;20058;-26
2023/07/05 02:26:43;;;;;;;24.75;16.00;;;13.70;99.90;;;;;;5116260;28;20086;-26
2023/07/05 02:29:09;;;;;;;29.02;16.25;;;13.50;99.90;;;;;;5116267;28;20126;-26
2023/07/05 02:31:35;;;;;;;30.52;16.27;;;13.70;99.90;;;;;;5098426;28;20044;-26
2023/07/05 02:34:01;;;;;;;36.53;17.10;;;13.40;99.90;;;;;;5116106;28;20104;-26
2023/07/05 02:36:27;;;;;;;24.38;16.73;;;13.50;99.90;;;;;;5116125;28;20048;-26
2023/07/05 02:38:53;;;;;;;30.92;17.30;;;13.50;99.90;;;;;;5116000;28;20104;-26
2023/07/05 02:41:20;;;;;;;30.02;17.63;;;13.60;99.90;;;;;;5116572;28;20385;-26
2023/07/05 02:43:46;;;;;;;34.33;18.98;;;13.50;99.90;;;;;;5098035;28;20040;-26
2023/07/05 02:46:11;;;;;;;38.13;18.50;;;13.70;99.90;;;;;;5115884;28;20050;-26
2023/07/05 02:48:37;;;;;;;30.75;18.20;;;13.70;99.90;;;;;;5115814;28;20079;-25
2023/07/05 02:51:03;;;;;;;36.97;18.15;;;13.50;99.90;;;;;;5115806;28;20050;-24
2023/07/05 02:53:28;;;;;;;34.17;19.45;;;13.50;99.90;;;;;;5115732;28;20096;-23
2023/07/05 02:55:55;;;;;;;31.05;19.67;;;13.60;99.90;;;;;;5080862;28;20389;-23
2023/07/05 02:58:21;;;;;;;36.03;22.00;;;13.50;99.90;;;;;;5115873;28;20062;-22
2023/07/05 03:00:47;;;;;;;37.50;20.02;;;13.60;99.90;;;;;;5115933;28;20536;-22
2023/07/05 03:03:12;;;;;;;39.53;20.85;;;13.50;99.90;;;;;;5097462;28;20099;-22
2023/07/05 03:05:38;;;;;;;36.83;20.27;;;13.70;99.90;;;;;;5115474;28;20059;-23
2023/07/05 03:08:04;;;;;;;34.20;20.90;;;13.70;99.90;;;;;;5115452;28;20466;-23
2023/07/05 03:10:30;;;;;;;42.30;23.33;;;13.90;99.90;;;;;;5114278;28;20572;-23
2023/07/05 03:12:56;;;;;;;37.65;21.48;;;13.70;99.90;;;;;;5115907;28;20150;-23
2023/07/05 03:15:21;;;;;;;41.60;22.73;;;13.60;99.90;;;;;;5115879;28;20105;-23
2023/07/05 03:17:47;;;;;;;38.28;21.40;;;13.90;99.90;;;;;;5115181;28;20046;-23
2023/07/05 03:20:13;;;;;;;41.92;21.85;;;13.40;99.90;;;;;;5115199;28;20086;-24
2023/07/05 03:22:38;;;;;;;37.92;22.02;;;13.90;99.90;;;;;;5097056;28;20043;-24
2023/07/05 03:25:04;;;;;;;35.38;22.83;;;13.70;99.90;;;;;;5115453;28;20066;-24
2023/07/05 03:27:30;;;;;;;41.28;23.63;;;13.50;99.90;;;;;;5115442;28;20040;-23
2023/07/05 03:29:56;;;;;;;38.53;24.05;;;13.50;99.90;;;;;;5115073;28;20043;-24
2023/07/05 03:32:22;;;;;;;39.30;23.52;;;14.00;99.90;;;;;;5114890;28;20536;-23
2023/07/05 03:34:49;;;;;;;37.65;24.13;;;13.60;99.90;;;;;;5115039;28;20043;-23
2023/07/05 03:37:15;;;;;;;34.97;23.50;;;14.10;99.90;;;;;;5115399;28;20044;-24
2023/07/05 03:39:40;;;;;;;42.60;26.25;;;13.80;99.90;;;;;;5114864;28;20051;-24
2023/07/05 03:42:06;;;;;;;43.92;24.27;;;14.20;99.90;;;;;;5114815;28;20044;-23
2023/07/05 03:44:32;;;;;;;43.67;24.65;;;14.20;99.90;;;;;;5114772;28;20367;-22
2023/07/05 03:46:58;;;;;;;47.03;25.67;;;13.70;99.90;;;;;;5115286;28;20184;-22
2023/07/05 03:49:23;;;;;;;42.05;24.92;;;13.80;99.90;;;;;;5097557;28;20047;-23
2023/07/05 03:51:50;;;;;;;36.55;22.58;;;14.30;99.90;;;;;;5115479;28;20047;-24
2023/07/05 03:54:16;;;;;;;41.45;23.00;;;14.10;99.90;;;;;;5114654;28;20048;-24
2023/07/05 03:56:41;;;;;;;33.72;21.40;;;14.40;99.90;;;;;;5114452;28;20481;-24
2023/07/05 03:59:09;;;;;;;33.22;22.40;;;13.80;99.90;;;;;;5115316;28;20044;-24
2023/07/05 04:01:34;;;;;;;37.50;23.17;;;14.50;99.90;;;;;;5114775;28;20047;-24
2023/07/05 04:04:01;;;;;;;37.55;23.20;;;14.50;99.90;;;;;;5114515;28;20485;-24
2023/07/05 04:06:33;;;;;;;37.13;23.25;;;14.20;99.90;;;;;;5114013;28;20055;-24
2023/07/05 04:08:59;;;;;;;36.20;23.80;;;14.40;99.90;;;;;;5114464;28;20055;-24
2023/07/05 04:11:25;;;;;;;41.95;23.15;;;13.90;99.90;;;;;;5114397;28;20104;-24
2023/07/05 04:13:53;;;;;;;36.20;22.55;;;14.40;99.90;;;;;;5115125;28;20048;-23
2023/07/05 04:16:23;;;;;;;32.80;22.23;;;13.90;99.90;;;;;;5114180;28;20053;-24
2023/07/05 04:18:51;;;;;;;32.67;21.13;;;13.90;99.90;;;;;;5113615;28;20137;-24
2023/07/05 04:21:18;;;;;;;33.05;19.30;;;14.40;99.90;;;;;;5113988;28;20051;-24
2023/07/05 04:23:44;;;;;;;32.35;20.73;;;14.60;99.90;;;;;;5114218;28;20051;-24
2023/07/05 04:26:12;;;;;;;30.55;20.70;;;14.40;99.90;;;;;;5114215;28;20362;-24
2023/07/05 04:28:39;;;;;;;29.30;19.40;;;14.20;99.90;;;;;;5115009;28;20074;-24
2023/07/05 04:31:09;;;;;;;28.30;18.83;;;14.10;99.90;;;;;;5114150;28;20122;-24
2023/07/05 04:33:35;;;;;;;30.90;20.05;;;14.60;99.90;;;;;;5114014;28;20058;-24
2023/07/05 04:36:02;;;;;;;30.73;19.70;;;14.80;99.90;;;;;;5114630;28;20130;-24
2023/07/05 04:38:28;;;;;;;28.52;19.83;;;14.20;99.90;;;;;;5112788;28;20050;-24
2023/07/05 04:40:58;;;;;;;32.38;18.17;;;14.80;99.90;;;;;;5096514;28;20039;-24
2023/07/05 04:43:26;;;;;;;23.10;16.08;;;14.50;99.90;;;;;;5114588;28;20048;-24
2023/07/05 04:45:53;;;;;;;20.77;14.77;;;14.70;99.90;;;;;;5114007;28;20044;-24
2023/07/05 04:48:20;;;;;;;24.67;17.63;;;14.50;99.90;;;;;;5113926;28;20576;-24
2023/07/05 04:50:52;;;;;;;17.25;13.77;;;14.90;99.90;;;;;;5113934;28;20123;-24
2023/07/05 04:53:21;;;;;;;19.08;12.52;;;14.80;99.90;;;;;;5114759;28;20051;-24
2023/07/05 04:55:53;;;;;;;15.10;10.93;;;14.30;99.90;;;;;;5113924;28;20397;-24
2023/07/05 04:58:20;;;;;;;21.40;13.38;;;14.90;99.90;;;;;;5112945;28;20047;-24
2023/07/05 05:00:46;;;;;;;14.77;10.63;;;14.80;99.90;;;;;;5113848;28;20492;-24
2023/07/05 05:03:24;;;;;;;16.67;11.70;;;14.60;99.90;;;;;;5079850;28;20049;-24
2023/07/05 05:05:54;;;;;;;16.88;9.38;;;14.60;99.90;;;;;;5095957;28;20508;-24
2023/07/05 05:08:27;;;;;;;13.98;7.53;;;14.50;99.90;;;;;;5078949;28;20047;-24
2023/07/05 05:10:58;;;;;;;11.80;7.43;;;14.60;99.90;;;;;;5096516;28;20055;-24
2023/07/05 05:13:23;;;;;;;10.75;6.75;;;14.10;99.90;;;;;;5113810;28;20047;-24
2023/07/05 05:15:50;;;;;;;8.85;5.82;;;14.50;99.90;;;;;;5113420;28;20103;-24
2023/07/05 05:18:17;;;;;;;7.20;4.93;;;14.30;99.90;;;;;;5096076;28;20071;-24
2023/07/05 05:20:43;;;;;;;8.63;5.97;;;14.20;99.90;;;;;;5113700;28;20561;-24
2023/07/05 05:23:09;;;;;;;8.38;4.82;;;14.30;99.90;;;;;;5114186;28;20130;-23
2023/07/05 05:25:35;;;;;;;9.65;4.85;;;13.90;99.90;;;;;;5113575;28;20047;-23
2023/07/05 05:28:01;;;;;;;9.02;4.82;;;13.80;99.90;;;;;;5113581;28;20591;-24
2023/07/05 05:30:31;;;;;;;7.22;4.40;;;13.60;99.90;;;;;;5114091;28;20454;-23
2023/07/05 05:32:57;;;;;;;5.72;3.50;;;13.90;99.90;;;;;;5080001;28;20087;-23
2023/07/05 05:35:22;;;;;;;7.22;3.88;;;13.70;99.90;;;;;;5117316;28;20086;-24
2023/07/05 05:37:48;;;;;;;5.43;4.13;;;13.80;99.90;;;;;;5117753;28;20048;-24
2023/07/05 05:40:14;;;;;;;8.50;4.38;;;13.70;99.90;;;;;;5117196;28;20047;-23
2023/07/05 05:42:39;;;;;;;5.93;4.63;;;13.70;99.90;;;;;;5082076;28;20036;-24
2023/07/05 05:45:06;;;;;;;8.57;4.10;;;13.60;99.90;;;;;;5117690;28;20044;-24
2023/07/05 05:47:31;;;;;;;5.68;4.15;;;13.70;99.90;;;;;;5115871;28;20044;-24
2023/07/05 05:49:58;;;;;;;7.85;4.28;;;13.80;99.90;;;;;;5117051;28;20043;-24
2023/07/05 05:52:24;;;;;;;6.35;4.60;;;14.20;99.90;;;;;;5117013;28;20047;-23
2023/07/05 05:54:50;;;;;;;7.47;5.13;;;14.10;99.90;;;;;;5116861;28;20047;-23
2023/07/05 05:57:15;;;;;;;11.00;4.97;;;14.40;99.90;;;;;;5117647;28;20051;-24
2023/07/05 05:59:41;;;;;;;4.72;4.10;;;14.30;99.90;;;;;;5116800;28;20051;-24
2023/07/05 06:02:08;;;;;;;5.90;3.60;;;14.00;99.90;;;;;;5117348;28;20087;-24
2023/07/05 06:04:34;;;;;;;7.03;4.82;;;14.00;99.90;;;;;;5116809;28;20105;-24
2023/07/05 06:07:00;;;;;;;9.15;5.15;;;14.00;99.90;;;;;;5117877;28;20423;-24
2023/07/05 06:09:27;;;;;;;7.18;4.55;;;14.00;99.90;;;;;;5116665;28;20058;-24
2023/07/05 06:11:53;;;;;;;7.43;4.07;;;14.10;99.90;;;;;;5098759;28;20044;-24
2023/07/05 06:14:19;;;;;;;7.20;4.00;;;14.20;99.90;;;;;;5117142;28;20050;-24
2023/07/05 06:16:47;;;;;;;6.32;4.40;;;14.30;99.90;;;;;;5116357;28;20043;-24
2023/07/05 06:19:13;;;;;;;5.97;3.78;;;14.40;99.90;;;;;;5117293;28;20386;-23
2023/07/05 06:21:38;;;;;;;7.25;4.40;;;14.50;99.90;;;;;;5116429;28;20040;-24
2023/07/05 06:24:04;;;;;;;11.48;3.70;;;14.50;99.90;;;;;;5081553;28;20058;-23
2023/07/05 06:26:32;;;;;;;6.07;3.50;;;14.70;99.90;;;;;;5116402;28;20081;-23
2023/07/05 06:28:58;;;;;;;5.13;3.50;;;14.80;99.90;;;;;;5116343;28;20059;-24
2023/07/05 06:31:24;;;;;;;7.15;3.78;;;14.80;99.90;;;;;;5115163;28;20059;-24
2023/07/05 06:33:50;;;;;;;7.07;3.47;;;14.70;99.90;;;;;;5116129;28;20138;-23
2023/07/05 06:36:15;;;;;;;7.95;3.20;;;14.50;99.90;;;;;;5115952;28;20040;-24
2023/07/05 06:38:41;;;;;;;7.90;4.00;;;14.50;99.90;;;;;;5098263;28;20056;-24
2023/07/05 06:41:09;;;;;;;7.10;3.83;;;14.70;99.90;;;;;;5116051;28;20502;-24
2023/07/05 06:43:35;;;;;;;7.18;3.33;;;14.80;99.90;;;;;;5116236;28;20497;-23
2023/07/05 06:46:01;;;;;;;4.90;3.50;;;15.10;99.90;;;;;;5080241;28;20054;-23
2023/07/05 06:48:27;;;;;;;4.82;3.50;;;16.00;99.90;;;;;;5115568;28;20115;-24
2023/07/05 06:50:55;;;;;;;8.77;4.22;;;16.90;99.90;;;;;;5115822;28;20044;-25
2023/07/05 06:53:21;;;;;;;3.85;2.92;;;17.50;1.00;;;;;;5116353;28;20048;-25
2023/07/05 06:55:50;;;;;;;6.03;3.45;;;17.40;1.00;;;;;;5097798;28;20079;-25
2023/07/05 06:58:16;;;;;;;3.83;2.35;;;16.90;99.90;;;;;;5097427;28;20504;-25
2023/07/05 07:00:45;;;;;;;5.95;3.40;;;16.40;1.00;;;;;;5115670;28;20044;-25
2023/07/05 07:03:10;;;;;;;3.65;1.90;;;16.00;56.70;;;;;;5116451;28;20116;-24
2023/07/05 07:05:36;;;;;;;5.18;2.47;;;15.60;1.00;;;;;;5115728;28;20465;-25
2023/07/05 07:08:02;;;;;;;5.22;3.15;;;15.70;89.70;;;;;;5115546;28;20051;-25
2023/07/05 07:10:28;;;;;;;7.18;2.72;;;15.50;99.90;;;;;;5115170;28;20477;-25
2023/07/05 07:12:53;;;;;;;5.80;2.67;;;15.30;99.90;;;;;;5115418;28;20043;-26
2023/07/05 07:15:19;;;;;;;6.32;2.72;;;15.30;99.90;;;;;;5080569;28;20051;-25
2023/07/05 07:17:45;;;;;;;11.00;2.60;;;15.40;1.00;;;;;;5116053;28;20044;-25
2023/07/05 07:20:11;;;;;;;6.15;2.63;;;15.20;99.90;;;;;;5097451;28;20393;-25
2023/07/05 07:22:37;;;;;;;5.57;3.05;;;15.00;49.50;;;;;;5097054;28;20043;-25
2023/07/05 07:25:03;;;;;;;5.47;2.70;;;15.10;99.90;;;;;;5097031;28;20047;-25
2023/07/05 07:27:30;;;;;;;4.90;3.05;;;15.30;27.90;;;;;;5114214;28;20055;-25
2023/07/05 07:30:03;;;;;;;5.40;2.13;;;15.50;88.60;;;;;;5115045;28;20443;-25
2023/07/05 07:32:28;;;;;;;3.65;2.17;;;15.40;99.90;;;;;;5097855;28;20051;-25
2023/07/05 07:34:55;;;;;;;5.07;2.58;;;15.20;1.00;;;;;;5115013;28;20431;-25
2023/07/05 07:37:21;;;;;;;3.78;1.80;;;15.20;1.00;;;;;;5115460;28;20050;-25
2023/07/05 07:39:47;;;;;;;2.83;1.80;;;15.20;99.90;;;;;;5079774;28;20496;-24
2023/07/05 07:42:13;;;;;;;6.90;2.03;;;15.30;99.90;;;;;;5114886;28;20405;-25
2023/07/05 07:44:38;;;;;;;5.28;2.63;;;15.30;99.90;;;;;;5114847;28;20092;-26
2023/07/05 07:47:09;;;;;;;3.00;1.70;;;15.30;80.70;;;;;;5114855;28;20477;-25
2023/07/05 07:49:36;;;;;;;3.92;1.80;;;15.10;1.00;;;;;;5079571;28;20516;-25
2023/07/05 07:52:02;;;;;;;4.80;2.00;;;15.00;99.90;;;;;;5115245;28;20054;-24
2023/07/05 07:54:30;;;;;;;7.13;2.30;;;14.60;99.90;;;;;;5114665;28;20048;-24
2023/07/05 07:56:57;;;;;;;6.90;3.05;;;13.60;99.90;;;;;;5096324;28;20047;-22
2023/07/05 07:59:23;;;;;;;3.70;0.77;;;13.00;99.90;;;;;;5114531;28;20477;-22
2023/07/05 08:01:50;;;;;;;3.20;0.73;;;12.10;99.90;;;;;;5114811;28;20043;-22
2023/07/05 08:04:16;;;;;;;2.72;1.10;;;12.00;99.90;;;;;;5079409;28;20556;-22
2023/07/05 08:06:50;;;;;;;4.72;2.15;;;11.50;99.90;;;;;;5114621;28;20048;-23
2023/07/05 08:09:20;;;;;;;5.30;1.58;;;11.40;99.90;;;;;;5115028;28;20048;-23
2023/07/05 08:11:45;;;;;;;2.28;0.95;;;11.70;99.90;;;;;;5114674;28;20410;-22
2023/07/05 08:14:15;;;;;;;6.45;0.80;;;11.20;99.90;;;;;;5114296;28;20044;-23
2023/07/05 08:16:41;;;;;;;2.95;1.00;;;11.50;99.90;;;;;;5115013;28;20044;-23
2023/07/05 08:19:07;;;;;;;2.70;1.00;;;11.40;99.90;;;;;;5096364;28;20432;-22
2023/07/05 08:21:33;;;;;;;2.25;1.10;;;11.60;99.90;;;;;;5114245;28;20044;-23
2023/07/05 08:23:59;;;;;;;2.85;0.98;;;11.50;99.90;;;;;;5114236;28;20092;-23
2023/07/05 08:26:25;;;;;;;5.38;1.08;;;11.50;99.90;;;;;;5114717;28;20047;-23
2023/07/05 08:28:50;;;;;;;2.10;0.73;;;10.90;99.90;;;;;;5079669;28;20381;-22
2023/07/05 08:31:17;;;;;;;2.58;1.02;;;11.00;99.90;;;;;;5114697;28;20047;-23
2023/07/05 08:33:44;;;;;;;3.38;1.17;;;11.10;99.90;;;;;;5114135;28;20078;-23
2023/07/05 08:36:34;;;;;;;2.50;0.77;;;11.50;99.90;;;;;;5079974;28;20036;-23
2023/07/05 08:39:05;;;;;;;2.67;0.60;;;11.50;99.90;;;;;;5114154;28;20043;-23
2023/07/05 08:41:43;;;;;;;2.10;0.85;;;11.40;99.90;;;;;;5096884;28;20108;-23
2023/07/05 08:44:46;;;;;;;3.05;0.93;;;10.90;99.90;;;;;;5116003;28;20493;-23
2023/07/05 08:47:24;;;;;;;1.58;0.73;;;11.30;99.90;;;;;;5133206;28;20058;-23
2023/07/05 08:50:06;;;;;;;2.80;0.60;;;10.90;99.90;;;;;;5131392;28;20446;-24
2023/07/05 08:52:38;;;;;;;3.65;1.30;;;11.50;99.90;;;;;;5119560;28;20080;-23
2023/07/05 08:55:08;;;;;;;1.40;0.65;;;10.90;99.90;;;;;;5114285;28;20054;-23
2023/07/05 08:57:53;;;;;;;1.92;0.73;;;11.10;99.90;;;;;;5114779;28;20549;-23
2023/07/05 09:00:34;;;;;;;4.85;1.13;;;11.10;99.90;;;;;;5120620;28;20043;-24
2023/07/05 09:03:00;;;;;;;3.03;0.73;;;11.40;99.90;;;;;;5094768;28;20047;-23
2023/07/05 09:05:39;;;;;;;4.28;1.27;;;11.00;99.90;;;;;;5114129;28;20074;-24
2023/07/05 09:08:31;;;;;;;7.82;1.15;;;10.90;99.90;;;;;;5115440;28;20083;-24
2023/07/05 09:11:42;;;;;;;4.78;1.80;;;10.90;99.90;;;;;;5117840;28;20456;-24
2023/07/05 09:14:24;;;;;;;6.35;1.63;;;11.60;99.90;;;;;;5080894;28;20074;-23
2023/07/05 09:17:16;;;;;;;9.40;2.35;;;11.10;99.90;;;;;;5117653;28;20135;-24
2023/07/05 09:19:54;;;;;;;7.60;2.05;;;11.90;99.90;;;;;;5099725;28;20101;-25
2023/07/05 09:22:24;;;;;;;10.73;2.20;;;12.10;99.90;;;;;;5117674;28;20047;-24
2023/07/05 09:24:52;;;;;;;7.63;1.70;;;11.80;99.90;;;;;;5099889;28;20044;-24
2023/07/05 09:27:27;;;;;;;3.63;0.90;;;11.70;99.90;;;;;;5117537;28;20097;-23
2023/07/05 09:30:01;;;;;;;5.55;0.60;;;12.40;99.90;;;;;;5117802;28;20431;-23
2023/07/05 09:32:39;;;;;;;4.78;0.65;;;12.40;99.90;;;;;;5117608;28;20423;-22
2023/07/05 09:35:26;;;;;;;1.55;0.50;;;11.80;99.90;;;;;;5117371;28;20051;-22
2023/07/05 09:37:56;;;;;;;2.97;0.60;;;12.40;99.90;;;;;;5117369;28;20122;-23
2023/07/05 09:40:30;;;;;;;7.25;0.80;;;12.60;99.90;;;;;;5117588;28;20100;-23
2023/07/05 09:43:19;;;;;;;2.10;0.50;;;12.70;99.90;;;;;;5117535;28;20075;-23
2023/07/05 09:45:45;;;;;;;5.05;0.77;;;13.20;99.90;;;;;;5117469;28;20405;-24
2023/07/05 09:48:12;;;;;;;3.88;0.90;;;12.80;99.90;;;;;;5082053;28;20036;-23
2023/07/05 09:50:47;;;;;;;4.32;0.68;;;13.40;99.90;;;;;;5082042;28;20039;-24
2023/07/05 09:53:30;;;;;;;3.38;1.60;;;13.40;99.90;;;;;;5117098;28;20094;-24
2023/07/05 09:56:03;;;;;;;2.13;0.90;;;13.40;99.90;;;;;;5117527;28;20050;-24
2023/07/05 09:58:28;;;;;;;;;;;13.40;99.90;;;;;;5098751;28;20039;-24
2023/07/05 10:00:55;;;;;;;2.17;1.00;;;13.30;99.90;;;;;;5098666;28;19923;-24
2023/07/05 10:03:21;;;;;;;2.65;0.65;;;13.20;99.90;;;;;;5081991;28;20051;-24
2023/07/05 10:05:54;;;;;;;1.75;0.57;;;13.00;99.90;;;;;;5116608;28;20051;-24
2023/07/05 10:08:22;;;;;;;1.35;0.68;;;12.80;99.90;;;;;;5117000;28;20049;-25
2023/07/05 10:10:48;;;;;;;3.92;0.47;;;12.70;99.90;;;;;;5116685;28;20494;-24
2023/07/05 10:13:19;;;;;;;1.42;0.40;;;12.80;99.90;;;;;;5116283;28;20393;-24
2023/07/05 10:15:50;;;;;;;2.70;0.25;;;12.90;99.90;;;;;;5098613;28;20427;-24
2023/07/05 10:18:34;;;;;;;2.67;0.80;;;12.90;99.90;;;;;;5098220;28;20043;-24
2023/07/05 10:21:17;;;;;;;1.27;0.30;;;13.10;99.90;;;;;;5116375;28;20058;-25
2023/07/05 10:23:44;;;;;;;3.58;0.30;;;13.70;99.90;;;;;;5116729;28;20119;-25
2023/07/05 10:26:11;;;;;;;0.65;0.10;;;13.90;99.90;;;;;;5081230;28;20066;-26
2023/07/05 10:28:41;;;;;;;1.08;0.10;;;14.60;99.90;;;;;;5116606;28;20135;-25
2023/07/05 10:31:30;;;;;;;2.33;0.20;;;14.90;99.90;;;;;;5098254;28;20043;-24
2023/07/05 10:34:13;;;;;;;2.08;0.25;;;14.60;99.90;;;;;;5116199;28;20131;-25
2023/07/05 10:36:45;;;;;;;0.20;0.00;;;14.20;99.90;;;;;;5098969;28;20136;-24
2023/07/05 10:39:11;;;;;;;2.07;0.20;;;14.40;99.90;;;;;;5099047;28;20055;-25
2023/07/05 10:41:40;;;;;;;1.38;0.20;;;14.50;99.90;;;;;;5097762;28;20048;-24
2023/07/05 10:44:06;;;;;;;1.05;0.20;;;14.60;99.90;;;;;;5116779;28;20047;-24
2023/07/05 10:46:36;;;;;;;1.58;0.17;;;15.50;99.90;;;;;;5098305;28;20054;-25
2023/07/05 10:49:05;;;;;;;1.15;0.20;;;16.20;99.90;;;;;;5115950;28;20043;-25
2023/07/05 10:51:37;;;;;;;6.38;0.60;;;16.10;99.90;;;;;;5115872;28;20517;-25
2023/07/05 10:54:17;;;;;;;1.20;0.20;;;16.30;99.90;;;;;;5115826;28;20082;-25
2023/07/05 10:56:44;;;;;;;2.65;0.25;;;16.30;1.00;;;;;;5116292;28;20048;-27
2023/07/05 10:59:16;;;;;;;0.85;0.10;;;16.30;99.90;;;;;;5115346;28;20401;-25
2023/07/05 11:01:55;;;;;;;1.50;0.32;;;16.40;99.90;;;;;;5115701;28;20083;-25
2023/07/05 11:04:24;;;;;;;0.95;0.20;;;16.30;49.10;;;;;;5115725;28;20130;-26
2023/07/05 11:06:53;;;;;;;0.50;0.10;;;16.80;99.90;;;;;;5115144;28;20405;-25
2023/07/05 11:09:19;;;;;;;1.17;0.20;;;17.20;17.90;;;;;;5115490;28;20108;-26
2023/07/05 11:11:51;;;;;;;0.32;0.20;;;17.20;99.90;;;;;;5115151;28;20408;-25
2023/07/05 11:14:17;;;;;;;0.82;0.22;;;16.60;99.90;;;;;;5116370;28;20365;-25
2023/07/05 11:16:48;;;;;;;1.27;0.20;;;16.60;1.00;;;;;;5097123;28;20039;-25
2023/07/05 11:19:18;;;;;;;2.65;0.73;;;16.50;99.90;;;;;;5115365;28;20035;-26
2023/07/05 11:21:47;;;;;;;1.10;0.30;;;16.40;1.00;;;;;;5097429;28;20050;-26
2023/07/05 11:24:38;;;;;;;2.25;0.43;;;16.50;99.90;;;;;;5115308;28;20481;-26
2023/07/05 11:27:27;;;;;;;2.60;0.30;;;16.40;99.90;;;;;;5115378;28;20122;-25
2023/07/05 11:29:54;;;;;;;1.95;0.65;;;16.40;99.90;;;;;;5115114;28;20490;-25
2023/07/05 11:32:22;;;;;;;1.98;0.32;;;16.50;99.90;;;;;;5079540;28;20047;-25
2023/07/05 11:34:51;;;;;;;2.90;0.50;;;16.60;22.90;;;;;;5115038;28;20048;-26
2023/07/05 11:37:17;;;;;;;2.20;0.70;;;17.00;99.90;;;;;;5114914;28;20068;-25
2023/07/05 11:39:42;;;;;;;2.60;0.70;;;17.40;1.00;;;;;;5114952;28;20397;-26
2023/07/05 11:42:14;;;;;;;2.72;0.70;;;17.50;1.00;;;;;;5114872;28;20481;-26
2023/07/05 11:44:40;;;;;;;2.60;0.40;;;17.10;99.90;;;;;;5096696;28;20552;-27
2023/07/05 11:47:29;;;;;;;5.03;1.02;;;16.90;99.90;;;;;;5096634;28;20079;-26
2023/07/05 11:50:06;;;;;;;3.15;0.45;;;16.90;99.90;;;;;;5114804;28;20043;-26
2023/07/05 11:52:35;;;;;;;4.88;0.93;;;16.80;31.00;;;;;;5098377;28;20404;-25
2023/07/05 11:55:30;;;;;;;10.00;0.95;;;16.90;1.00;;;;;;5114645;28;20054;-26
2023/07/05 11:58:23;;;;;;;4.75;0.75;;;16.90;99.90;;;;;;5096775;28;20042;-26
2023/07/05 12:00:58;;;;;;;9.57;1.38;;;17.00;1.00;;;;;;5115449;28;20075;-25
2023/07/05 12:03:41;;;;;;;3.70;0.80;;;16.80;99.90;;;;;;5114589;28;20043;-26
2023/07/05 12:06:13;;;;;;;7.53;1.90;;;16.60;99.90;;;;;;5096452;28;20059;-25
2023/07/05 12:08:46;;;;;;;10.07;1.65;;;15.80;99.90;;;;;;5097334;28;20058;-25
2023/07/05 12:11:14;;;;;;;8.05;1.77;;;14.90;1.00;;;;;;5096214;28;20051;-24
2023/07/05 12:13:41;;;;;;;8.38;1.80;;;14.50;99.90;;;;;;5115222;28;20428;-25
2023/07/05 12:16:13;;;;;;;10.52;3.03;;;14.40;99.90;;;;;;5114884;28;20101;-25
2023/07/05 12:18:41;;;;;;;10.38;1.80;;;14.30;99.90;;;;;;5114307;28;20039;-25
2023/07/05 12:21:07;;;;;;;12.15;2.50;;;14.10;99.90;;;;;;5114333;28;20054;-24
2023/07/05 12:23:35;;;;;;;10.25;2.15;;;13.80;99.90;;;;;;5114225;28;20055;-23
2023/07/05 12:26:05;;;;;;;8.10;1.77;;;13.60;99.90;;;;;;5096252;28;20414;-24
2023/07/05 12:28:33;;;;;;;6.05;1.67;;;13.40;99.90;;;;;;5096182;28;20058;-24
2023/07/05 12:31:05;;;;;;;10.05;2.13;;;13.20;99.90;;;;;;5095840;28;20063;-26
2023/07/05 12:33:37;;;;;;;14.15;2.72;;;13.10;99.90;;;;;;5114360;28;20043;-25
2023/07/05 12:36:05;;;;;;;12.70;3.00;;;12.90;99.90;;;;;;5114112;28;20508;-24
2023/07/05 12:38:32;;;;;;;7.10;2.28;;;13.10;99.90;;;;;;5114476;28;20040;-24
2023/07/05 12:40:58;;;;;;;6.43;1.80;;;13.20;99.90;;;;;;5114083;28;20477;-23
2023/07/05 12:43:32;;;;;;;4.93;1.45;;;12.90;99.90;;;;;;5117209;28;20047;-24
2023/07/05 12:46:06;;;;;;;5.75;1.30;;;12.90;99.90;;;;;;5101345;28;20382;-23
2023/07/05 12:48:32;;;;;;;6.03;1.92;;;12.90;99.90;;;;;;5118846;28;20040;-24
2023/07/05 12:51:06;;;;;;;5.75;1.67;;;12.80;99.90;;;;;;5083450;28;20105;-23
2023/07/05 12:53:32;;;;;;;7.20;1.63;;;13.00;99.90;;;;;;5119103;28;20047;-25
2023/07/05 12:56:11;;;;;;;4.60;1.30;;;13.00;99.90;;;;;;5117837;28;20497;-24